Time;durP1;ratioP1;P1;durP2;ratioP2;P2;SDS_P1;SDS_P2;PMS_P1;PMS_P2;Temp;Humidity;BMP_temperature;BMP_pressure;BME280_temperature;BME280_humidity;BME280_pressure;Samples;Min_cycle;Max_cycle;Signal;HPM_P1;HPM_P2
2023/09/08 00:00:09;;;;;;;4.20;1.90;;;;;;;22.12;69.94;101429.91;5030952;28;20493;-69
2023/09/08 00:02:35;;;;;;;2.35;1.50;;;;;;;22.15;70.50;101431.81;5023307;28;20025;-69
2023/09/08 00:05:00;;;;;;;2.67;1.70;;;;;;;22.09;69.33;101427.19;5029769;28;20405;-69
2023/09/08 00:07:25;;;;;;;2.80;1.75;;;;;;;22.05;69.61;101426.47;5030944;28;20079;-69
2023/09/08 00:09:51;;;;;;;2.08;1.70;;;;;;;21.96;70.72;101423.47;5023945;28;20036;-69
2023/09/08 00:12:17;;;;;;;3.90;1.58;;;;;;;21.93;70.40;101430.53;5029515;28;20091;-69
2023/09/08 00:14:42;;;;;;;4.70;1.70;;;;;;;21.88;70.05;101428.25;5013446;28;20033;-69
2023/09/08 00:17:08;;;;;;;2.42;2.00;;;;;;;21.81;70.44;101433.06;5012913;28;20037;-69
2023/09/08 00:19:33;;;;;;;2.17;1.70;;;;;;;21.74;70.76;101433.91;5029205;28;20036;-69
2023/09/08 00:21:58;;;;;;;4.00;1.92;;;;;;;21.69;71.25;101428.09;5030887;28;20095;-69
2023/09/08 00:24:24;;;;;;;2.60;1.50;;;;;;;21.72;71.51;101430.03;5026255;28;20041;-69
2023/09/08 00:26:49;;;;;;;2.15;1.70;;;;;;;21.75;70.55;101426.47;5013192;28;20025;-69
2023/09/08 00:29:15;;;;;;;2.92;1.60;;;;;;;21.77;71.00;101426.81;5010148;28;20034;-69
2023/09/08 00:31:41;;;;;;;2.85;1.80;;;;;;;21.87;71.05;101431.44;5028945;28;20377;-69
2023/09/08 00:34:07;;;;;;;3.78;2.25;;;;;;;21.91;70.79;101418.44;5015845;28;20032;-69
2023/09/08 00:36:33;;;;;;;2.25;1.50;;;;;;;21.97;69.74;101414.81;5028031;28;20037;-69
2023/09/08 00:38:58;;;;;;;3.30;1.90;;;;;;;21.91;70.40;101419.19;5013518;28;20053;-69
2023/09/08 00:41:24;;;;;;;3.83;1.85;;;;;;;21.86;70.76;101418.88;5013149;28;20049;-69
2023/09/08 00:43:50;;;;;;;4.57;1.90;;;;;;;21.79;71.13;101416.22;5029773;28;20585;-69
2023/09/08 00:46:17;;;;;;;3.08;1.92;;;;;;;21.70;70.76;101413.97;5030777;28;20110;-68
2023/09/08 00:48:42;;;;;;;3.25;2.25;;;;;;;21.75;70.63;101416.28;5019537;28;20033;-69
2023/09/08 00:51:09;;;;;;;3.88;1.95;;;;;;;21.70;71.19;101410.47;5030388;28;20029;-69
2023/09/08 00:53:35;;;;;;;3.28;1.65;;;;;;;21.73;70.04;101409.63;5011291;28;20121;-69
2023/09/08 00:56:02;;;;;;;2.45;1.65;;;;;;;21.76;70.31;101417.03;5019472;28;20069;-69
2023/09/08 00:58:28;;;;;;;6.88;2.10;;;;;;;21.69;70.07;101411.66;5027944;28;20417;-69
2023/09/08 01:00:54;;;;;;;2.70;1.80;;;;;;;21.63;71.05;101405.06;5028798;28;20473;-69
2023/09/08 01:03:20;;;;;;;3.83;1.73;;;;;;;21.62;71.20;101407.03;5008336;28;20036;-69
2023/09/08 01:05:46;;;;;;;2.78;1.80;;;;;;;21.60;71.12;101401.19;5027018;28;20026;-70
2023/09/08 01:08:13;;;;;;;3.08;1.95;;;;;;;21.62;70.45;101401.56;5029175;28;20064;-69
2023/09/08 01:10:41;;;;;;;2.67;1.67;;;;;;;21.62;70.50;101398.81;5022046;28;20429;-69
2023/09/08 01:13:07;;;;;;;2.45;1.80;;;;;;;21.58;71.04;101394.56;5028698;28;20029;-69
2023/09/08 01:15:33;;;;;;;4.03;1.88;;;;;;;21.62;70.09;101392.56;5029354;28;20030;-69
2023/09/08 01:17:59;;;;;;;3.58;2.00;;;;;;;21.47;71.10;101400.16;5019433;28;20112;-69
2023/09/08 01:20:48;;;;;;;3.17;1.77;;;;;;;21.43;71.71;101392.00;5029525;28;20148;-69
2023/09/08 01:23:37;;;;;;;3.25;1.83;;;;;;;21.53;71.43;101387.56;5010312;28;20497;-69
2023/09/08 01:26:18;;;;;;;3.70;2.00;;;;;;;21.61;70.74;101385.50;5007070;28;20033;-69
2023/09/08 01:28:47;;;;;;;2.75;1.67;;;;;;;21.62;70.20;101387.84;5029471;28;20059;-69
2023/09/08 01:31:13;;;;;;;3.30;1.90;;;;;;;21.64;70.04;101381.94;5029135;28;20037;-69
2023/09/08 01:33:41;;;;;;;3.55;1.73;;;;;;;21.66;69.58;101393.28;5026951;28;20038;-69
2023/09/08 01:36:07;;;;;;;4.75;1.80;;;;;;;21.66;70.20;101379.56;5011592;28;20041;-68
2023/09/08 01:38:32;;;;;;;2.75;1.73;;;;;;;21.70;69.48;101383.03;5007562;28;20030;-68
2023/09/08 01:40:58;;;;;;;3.30;2.17;;;;;;;21.65;69.72;101378.78;5011180;28;20076;-69
2023/09/08 01:43:23;;;;;;;4.97;2.53;;;;;;;21.63;69.99;101367.44;5026801;28;20670;-69
2023/09/08 01:45:50;;;;;;;3.78;1.98;;;;;;;21.60;69.97;101375.72;5005625;28;20120;-69
2023/09/08 01:48:16;;;;;;;3.00;2.13;;;;;;;21.55;69.97;101377.75;5011428;28;20608;-68
2023/09/08 01:50:41;;;;;;;4.85;2.30;;;;;;;21.48;70.56;101372.34;5028809;28;20108;-69
2023/09/08 01:53:07;;;;;;;2.75;1.92;;;;;;;21.42;71.28;101365.78;5021494;28;20037;-69
2023/09/08 01:55:32;;;;;;;3.38;1.83;;;;;;;21.27;71.40;101364.38;4978005;28;1074822;-69
2023/09/08 01:57:58;;;;;;;4.10;2.03;;;;;;;21.26;71.79;101362.84;5012801;28;20668;-68
2023/09/08 02:00:24;;;;;;;2.92;2.15;;;;;;;21.19;72.06;101367.63;4997628;28;20025;-69
2023/09/08 02:02:49;;;;;;;5.32;2.30;;;;;;;21.14;72.16;101360.63;5012227;28;20117;-69
2023/09/08 02:05:15;;;;;;;2.47;1.95;;;;;;;21.14;72.08;101363.38;5030893;28;20230;-70
2023/09/08 02:07:41;;;;;;;2.88;2.10;;;;;;;21.16;72.31;101362.94;5010913;28;20053;-69
2023/09/08 02:10:07;;;;;;;2.53;1.75;;;;;;;21.09;71.87;101369.31;5028561;28;20609;-69
2023/09/08 02:12:32;;;;;;;3.70;2.20;;;;;;;21.11;71.62;101355.97;5014945;28;20035;-69
2023/09/08 02:14:57;;;;;;;4.05;2.17;;;;;;;21.09;72.62;101360.28;5033661;28;20033;-69
2023/09/08 02:17:23;;;;;;;3.63;2.08;;;;;;;21.13;71.93;101353.59;5015678;28;20085;-69
2023/09/08 02:19:48;;;;;;;2.38;1.85;;;;;;;20.98;72.35;101365.84;5015853;28;20520;-69
2023/09/08 02:22:14;;;;;;;3.60;1.65;;;;;;;20.95;72.80;101361.19;5032536;28;20049;-69
2023/09/08 02:24:39;;;;;;;5.38;2.38;;;;;;;20.96;73.00;101360.03;5012459;28;20041;-69
2023/09/08 02:27:05;;;;;;;4.82;1.98;;;;;;;20.88;73.17;101358.56;5015502;28;20053;-69
2023/09/08 02:29:31;;;;;;;2.38;1.60;;;;;;;20.84;73.13;101357.81;5012149;28;20037;-69
2023/09/08 02:31:56;;;;;;;4.15;2.00;;;;;;;20.77;73.39;101360.59;4998340;28;20030;-69
2023/09/08 02:34:22;;;;;;;2.95;1.80;;;;;;;20.80;73.32;101354.31;5015711;28;20063;-69
2023/09/08 02:36:50;;;;;;;4.68;2.15;;;;;;;20.73;73.43;101364.56;5012802;28;20069;-69
2023/09/08 02:39:19;;;;;;;3.78;2.13;;;;;;;20.62;74.32;101368.19;5001623;28;20067;-69
2023/09/08 02:41:45;;;;;;;2.95;2.13;;;;;;;20.58;74.69;101364.69;5031451;28;20503;-69
2023/09/08 02:44:10;;;;;;;3.88;1.85;;;;;;;20.59;74.91;101354.53;5022221;28;20060;-69
2023/09/08 02:46:36;;;;;;;3.47;2.22;;;;;;;20.48;74.83;101356.56;5015381;28;20064;-69
2023/09/08 02:49:01;;;;;;;2.95;1.98;;;;;;;20.55;74.91;101362.00;5014690;28;20028;-68
2023/09/08 02:51:27;;;;;;;4.00;2.10;;;;;;;20.56;74.71;101358.84;5015292;28;20025;-68
2023/09/08 02:53:52;;;;;;;3.20;2.22;;;;;;;20.57;75.05;101365.13;5012680;28;20032;-70
2023/09/08 02:56:18;;;;;;;4.40;2.25;;;;;;;20.54;74.77;101355.75;5019529;28;20036;-69
2023/09/08 02:58:44;;;;;;;2.92;2.08;;;;;;;20.55;74.64;101351.06;5028885;28;20381;-68
2023/09/08 03:01:19;;;;;;;4.28;2.38;;;;;;;20.52;75.35;101354.59;5032787;28;20033;-68
2023/09/08 03:03:44;;;;;;;4.53;2.13;;;;;;;20.49;75.20;101360.88;5014255;28;20120;-68
2023/09/08 03:06:11;;;;;;;3.08;1.92;;;;;;;20.54;75.26;101361.22;4995296;28;20029;-71
2023/09/08 03:08:38;;;;;;;4.13;2.10;;;;;;;20.61;74.78;101354.91;5012991;28;20037;-68
2023/09/08 03:11:05;;;;;;;2.95;1.95;;;;;;;20.61;74.80;101352.94;5020426;28;20394;-68
2023/09/08 03:13:35;;;;;;;4.00;2.40;;;;;;;20.64;74.63;101346.66;5030830;28;20041;-68
2023/09/08 03:16:08;;;;;;;3.00;1.73;;;;;;;20.48;74.94;101353.84;5028372;28;20029;-69
2023/09/08 03:18:36;;;;;;;2.67;1.90;;;;;;;20.41;75.05;101349.22;5003456;28;20553;-69
2023/09/08 03:21:09;;;;;;;3.95;2.40;;;;;;;20.40;75.40;101344.16;5012344;28;20406;-69
2023/09/08 03:23:39;;;;;;;2.67;2.00;;;;;;;20.44;75.53;101348.41;4991375;28;20082;-70
2023/09/08 03:26:06;;;;;;;6.07;2.33;;;;;;;20.38;75.40;101354.72;5012902;28;20029;-70
2023/09/08 03:28:32;;;;;;;4.97;2.22;;;;;;;20.37;75.22;101344.94;4987838;28;20025;-68
2023/09/08 03:31:00;;;;;;;3.92;2.67;;;;;;;20.38;75.51;101347.28;4978324;28;20060;-70
2023/09/08 03:33:26;;;;;;;4.70;2.03;;;;;;;20.35;75.63;101336.38;4962821;28;20043;-71
2023/09/08 03:35:52;;;;;;;4.07;1.95;;;;;;;20.36;75.59;101346.91;4996744;28;20378;-70
2023/09/08 03:38:21;;;;;;;5.40;2.03;;;;;;;20.35;75.52;101345.34;5006073;28;20045;-68
2023/09/08 03:40:47;;;;;;;2.88;2.15;;;;;;;20.27;75.92;101343.06;5004572;28;20052;-70
2023/09/08 03:43:12;;;;;;;4.25;2.28;;;;;;;20.13;76.26;101337.72;4987444;28;20425;-70
2023/09/08 03:45:38;;;;;;;3.50;2.17;;;;;;;20.09;76.63;101339.69;5003820;28;20029;-72
2023/09/08 03:48:04;;;;;;;5.20;2.38;;;;;;;20.06;77.18;101344.00;5013311;28;20037;-69
2023/09/08 03:50:30;;;;;;;3.58;2.42;;;;;;;20.04;77.28;101340.88;5001372;28;20029;-68
2023/09/08 03:52:56;;;;;;;6.07;2.47;;;;;;;20.01;77.24;101341.69;5022193;28;20026;-70
2023/09/08 03:55:23;;;;;;;6.82;2.30;;;;;;;19.99;77.52;101332.34;5002636;28;20160;-69
2023/09/08 03:57:49;;;;;;;2.97;2.15;;;;;;;19.97;77.88;101329.22;4996903;28;20482;-69
2023/09/08 04:00:21;;;;;;;4.68;2.42;;;;;;;20.01;77.58;101330.75;5020210;28;20018;-68
2023/09/08 04:02:48;;;;;;;3.20;2.03;;;;;;;20.08;77.21;101335.38;5018353;28;20129;-69
2023/09/08 04:05:13;;;;;;;5.13;2.17;;;;;;;20.07;76.95;101326.41;5021296;28;20044;-68
2023/09/08 04:07:59;;;;;;;4.68;2.47;;;;;;;20.05;77.52;101328.00;5004017;28;20541;-70
2023/09/08 04:10:25;;;;;;;5.13;1.98;;;;;;;20.03;77.61;101320.19;4968963;28;20042;-68
2023/09/08 04:12:50;;;;;;;4.18;2.25;;;;;;;20.02;77.52;101329.56;4966708;28;20090;-68
2023/09/08 04:15:16;;;;;;;5.60;2.65;;;;;;;20.03;77.74;101324.88;4939128;28;20038;-68
2023/09/08 04:17:41;;;;;;;3.28;2.30;;;;;;;20.00;77.51;101322.94;4950504;28;20039;-68
2023/09/08 04:20:08;;;;;;;5.43;2.45;;;;;;;19.93;78.09;101328.47;4947588;28;20066;-68
2023/09/08 04:22:34;;;;;;;3.85;2.33;;;;;;;19.86;78.05;101328.53;4963550;28;20125;-72
2023/09/08 04:25:01;;;;;;;3.28;2.08;;;;;;;19.75;78.56;101336.78;4965013;28;20041;-68
2023/09/08 04:27:27;;;;;;;3.10;2.10;;;;;;;19.73;78.56;101330.94;4948815;28;20939;-68
2023/09/08 04:29:53;;;;;;;3.90;2.10;;;;;;;19.72;78.59;101330.16;4940495;28;20047;-68
2023/09/08 04:32:18;;;;;;;5.53;2.20;;;;;;;19.73;78.20;101326.25;4944795;28;20182;-68
2023/09/08 04:34:44;;;;;;;3.92;2.03;;;;;;;19.71;78.76;101317.66;4968708;28;20043;-68
2023/09/08 04:37:09;;;;;;;3.17;1.77;;;;;;;19.64;78.84;101323.19;4968682;28;20117;-69
2023/09/08 04:39:36;;;;;;;3.28;2.17;;;;;;;19.66;79.23;101317.31;4941864;28;20034;-68
2023/09/08 04:42:03;;;;;;;4.03;2.53;;;;;;;19.73;78.70;101320.78;4951712;28;20560;-69
2023/09/08 04:44:28;;;;;;;4.07;2.20;;;;;;;19.74;78.77;101325.06;4967447;28;20118;-69
2023/09/08 04:46:54;;;;;;;4.53;2.40;;;;;;;19.72;78.82;101319.22;4964397;28;20170;-69
2023/09/08 04:49:20;;;;;;;8.43;2.53;;;;;;;19.74;78.62;101319.59;5029803;28;20033;-68
2023/09/08 04:51:46;;;;;;;4.53;2.78;;;;;;;19.73;78.62;101318.06;5031115;28;20033;-69
2023/09/08 04:54:14;;;;;;;3.65;2.00;;;;;;;19.67;78.94;101316.13;5020350;22;20040;-66
2023/09/08 04:56:40;;;;;;;3.53;2.20;;;;;;;19.71;79.20;101306.75;5006491;28;20029;-66
2023/09/08 04:59:06;;;;;;;3.10;2.10;;;;;;;19.71;79.10;101301.28;5028544;28;20382;-66
2023/09/08 05:01:32;;;;;;;3.92;2.45;;;;;;;19.75;78.91;101315.69;5009242;28;20045;-66
2023/09/08 05:03:59;;;;;;;3.28;2.22;;;;;;;19.67;79.06;101305.19;5006343;28;20029;-66
2023/09/08 05:06:26;;;;;;;3.20;2.17;;;;;;;19.71;79.20;101309.47;5022532;28;20029;-66
2023/09/08 05:08:52;;;;;;;3.72;2.22;;;;;;;19.60;79.72;101308.78;5036244;28;20093;-67
2023/09/08 05:11:19;;;;;;;4.25;2.60;;;;;;;19.66;79.51;101307.19;5018338;28;20053;-67
2023/09/08 05:13:46;;;;;;;2.95;2.08;;;;;;;19.61;79.84;101310.31;5034636;28;20374;-66
2023/09/08 05:16:12;;;;;;;2.78;2.15;;;;;;;19.55;80.13;101313.88;5022112;28;20111;-66
2023/09/08 05:18:41;;;;;;;4.45;2.38;;;;;;;19.57;80.26;101306.03;5032441;28;20174;-65
2023/09/08 05:21:10;;;;;;;4.72;2.40;;;;;;;19.57;80.45;101306.81;5013708;28;20350;-68
2023/09/08 05:23:35;;;;;;;6.25;2.35;;;;;;;19.59;80.69;101307.19;5019072;28;20029;-68
2023/09/08 05:26:01;;;;;;;6.97;2.45;;;;;;;19.58;80.84;101305.66;5021504;28;20073;-68
2023/09/08 05:28:27;;;;;;;3.28;2.22;;;;;;;19.60;80.80;101303.31;5025529;28;20552;-67
2023/09/08 05:30:53;;;;;;;3.33;2.22;;;;;;;19.60;81.08;101299.78;5030223;28;20068;-67
2023/09/08 05:33:19;;;;;;;3.97;2.50;;;;;;;19.60;81.08;101299.78;5027896;28;20409;-68
2023/09/08 05:35:47;;;;;;;3.83;2.20;;;;;;;19.60;81.05;101294.31;5030902;28;20044;-67
2023/09/08 05:38:15;;;;;;;3.72;2.10;;;;;;;19.61;81.55;101298.59;5027206;28;20083;-67
2023/09/08 05:40:40;;;;;;;4.65;2.58;;;;;;;19.60;81.47;101283.38;5029878;28;20035;-67
2023/09/08 05:43:09;;;;;;;4.22;2.33;;;;;;;19.69;81.32;101287.22;5031402;28;20037;-68
2023/09/08 05:45:35;;;;;;;4.25;2.50;;;;;;;19.66;81.51;101288.03;5033635;28;20053;-66
2023/09/08 05:48:01;;;;;;;5.47;2.53;;;;;;;19.74;81.46;101275.84;5027290;28;20096;-67
2023/09/08 05:50:27;;;;;;;4.22;2.28;;;;;;;19.75;81.17;101285.63;5020695;28;20032;-68
2023/09/08 05:52:53;;;;;;;4.72;2.75;;;;;;;19.69;80.86;101280.97;5026169;28;20018;-66
2023/09/08 05:55:19;;;;;;;4.72;2.80;;;;;;;19.80;80.80;101287.16;5027657;28;20076;-68
2023/09/08 05:57:45;;;;;;;3.45;2.25;;;;;;;19.92;80.41;101280.44;5011825;28;20025;-67
2023/09/08 06:00:12;;;;;;;3.70;2.40;;;;;;;19.91;81.13;101287.06;5016292;28;20363;-67
2023/09/08 06:02:45;;;;;;;4.20;2.20;;;;;;;19.94;81.59;101289.00;5019827;28;20490;-68
2023/09/08 06:05:13;;;;;;;3.60;2.40;;;;;;;19.99;81.20;101288.56;5031004;28;20109;-64
2023/09/08 06:07:39;;;;;;;3.67;2.45;;;;;;;20.05;81.19;101286.97;5048833;28;20116;-67
2023/09/08 06:10:05;;;;;;;6.18;3.00;;;;;;;20.08;81.31;101291.63;5028478;28;20422;-64
2023/09/08 06:12:32;;;;;;;3.15;2.13;;;;;;;20.06;81.91;101291.25;5017735;28;20103;-67
2023/09/08 06:14:58;;;;;;;4.63;2.53;;;;;;;20.10;81.57;101292.78;5023093;28;20033;-67
2023/09/08 06:17:24;;;;;;;4.40;2.53;;;;;;;20.15;81.52;101294.31;5034506;28;20033;-67
2023/09/08 06:19:50;;;;;;;6.60;2.90;;;;;;;20.21;80.96;101290.00;5028108;28;20064;-67
2023/09/08 06:22:16;;;;;;;4.40;2.50;;;;;;;20.18;81.98;101294.31;5031114;28;20486;-67
2023/09/08 06:24:42;;;;;;;3.47;2.17;;;;;;;20.23;81.92;101304.03;5031839;28;20057;-67
2023/09/08 06:27:08;;;;;;;7.75;2.97;;;;;;;20.29;81.79;101302.41;5026947;28;20451;-66
2023/09/08 06:29:33;;;;;;;4.45;2.60;;;;;;;20.30;80.90;101295.75;5036596;28;20033;-67
2023/09/08 06:31:59;;;;;;;4.32;2.47;;;;;;;20.38;80.62;101302.72;5033140;28;20033;-68
2023/09/08 06:34:25;;;;;;;4.82;2.80;;;;;;;20.45;81.04;101300.69;5029149;28;20044;-67
2023/09/08 06:36:51;;;;;;;5.22;2.35;;;;;;;20.55;80.92;101304.53;5030610;28;20018;-65
2023/09/08 06:39:16;;;;;;;5.72;2.88;;;;;;;20.73;80.59;101296.13;5031139;28;20064;-66
2023/09/08 06:41:42;;;;;;;3.80;2.40;;;;;;;20.93;80.24;101303.31;5035247;28;20402;-67
2023/09/08 06:44:10;;;;;;;4.45;2.78;;;;;;;21.12;80.22;101299.19;5029358;28;20600;-68
2023/09/08 06:46:35;;;;;;;4.78;2.53;;;;;;;21.36;78.88;101301.63;5026872;28;20080;-67
2023/09/08 06:49:01;;;;;;;5.90;2.67;;;;;;;21.63;78.27;101309.09;5024169;28;20034;-67
2023/09/08 06:51:26;;;;;;;3.55;2.53;;;;;;;21.83;77.65;101307.25;5024531;28;20069;-67
2023/09/08 06:54:00;;;;;;;7.70;2.53;;;;;;;22.07;76.73;101304.13;5027832;28;20046;-66
2023/09/08 06:56:30;;;;;;;4.20;2.72;;;;;;;22.25;76.21;101306.56;5032259;28;20033;-68
2023/09/08 06:59:00;;;;;;;4.05;2.42;;;;;;;22.39;76.23;101312.59;5027432;28;20029;-68
2023/09/08 07:01:46;;;;;;;6.47;2.95;;;;;;;22.53;75.29;101308.81;5023086;28;20087;-67
2023/09/08 07:04:12;;;;;;;4.25;2.55;;;;;;;22.53;71.97;101319.03;4942422;28;20582;-68
2023/09/08 07:06:41;;;;;;;5.57;2.42;;;;;;;22.38;72.85;101313.00;4953779;28;20126;-67
2023/09/08 07:09:10;;;;;;;9.68;3.05;;;;;;;22.79;72.04;101320.91;4946319;28;20039;-67
2023/09/08 07:11:35;;;;;;;7.15;2.47;;;;;;;23.03;71.49;101328.69;4964157;28;20431;-67
2023/09/08 07:14:02;;;;;;;3.20;2.10;;;;;;;23.32;70.88;101323.41;4951949;28;20030;-68
2023/09/08 07:16:27;;;;;;;4.38;2.55;;;;;;;23.51;69.53;101317.09;4969992;28;20412;-67
2023/09/08 07:18:53;;;;;;;4.78;2.42;;;;;;;23.51;68.74;101317.09;4970011;28;20045;-67
2023/09/08 07:21:18;;;;;;;8.77;2.60;;;;;;;23.65;69.72;101319.53;4953959;28;20035;-68
2023/09/08 07:23:44;;;;;;;6.45;2.95;;;;;;;23.67;69.66;101321.84;4949562;28;20143;-67
2023/09/08 07:26:12;;;;;;;4.45;2.40;;;;;;;23.94;69.36;101328.66;4946892;28;20237;-66
2023/09/08 07:28:39;;;;;;;3.20;2.20;;;;;;;24.23;68.56;101330.78;4945354;28;20035;-68
2023/09/08 07:31:09;;;;;;;3.20;2.25;;;;;;;24.55;67.26;101325.19;4950784;28;21042;-68
2023/09/08 07:33:37;;;;;;;4.03;2.60;;;;;;;24.60;65.79;101319.19;4951927;28;20130;-68
2023/09/08 07:36:08;;;;;;;3.42;2.42;;;;;;;24.72;67.86;101318.47;4952644;28;20027;-69
2023/09/08 07:38:34;;;;;;;5.32;2.72;;;;;;;24.99;66.04;101321.66;4965567;28;20455;-66
2023/09/08 07:41:01;;;;;;;4.95;2.47;;;;;;;25.04;66.05;101332.94;4994703;28;20065;-66
2023/09/08 07:43:27;;;;;;;3.40;2.33;;;;;;;25.23;65.88;101328.44;5023460;28;20029;-67
2023/09/08 07:45:53;;;;;;;5.80;2.75;;;;;;;25.42;64.10;101324.75;5025160;28;20025;-68
2023/09/08 07:48:18;;;;;;;3.25;2.33;;;;;;;25.51;63.47;101319.34;5012822;28;20034;-66
2023/09/08 07:50:44;;;;;;;4.00;2.08;;;;;;;25.72;62.04;101326.22;5016440;28;20037;-66
2023/09/08 07:53:10;;;;;;;3.65;2.28;;;;;;;25.85;62.25;101319.47;5017843;28;20025;-66
2023/09/08 07:55:35;;;;;;;3.55;2.35;;;;;;;26.03;62.12;101316.13;5029051;28;20045;-66
2023/09/08 07:58:03;;;;;;;3.35;2.40;;;;;;;26.19;60.95;101323.53;5022304;28;20061;-66
2023/09/08 08:00:28;;;;;;;4.68;2.38;;;;;;;26.34;60.98;101317.09;5010284;28;20441;-66
2023/09/08 08:02:56;;;;;;;6.03;2.08;;;;;;;26.38;60.60;101312.22;5018862;28;20030;-66
2023/09/08 08:05:21;;;;;;;6.32;2.65;;;;;;;26.56;59.93;101311.59;5013669;28;20042;-66
2023/09/08 08:07:47;;;;;;;3.55;2.13;;;;;;;26.64;59.60;101307.34;5011243;28;20029;-66
2023/09/08 08:10:13;;;;;;;3.53;2.38;;;;;;;26.89;59.31;101306.50;5018412;28;20065;-66
2023/09/08 08:12:41;;;;;;;4.47;2.30;;;;;;;27.01;58.26;101306.44;5015942;28;20030;-66
2023/09/08 08:15:12;;;;;;;5.72;2.92;;;;;;;27.17;57.57;101306.22;5011031;28;20485;-66
2023/09/08 08:17:38;;;;;;;4.93;2.17;;;;;;;27.36;57.86;101309.88;5023827;28;20030;-66
2023/09/08 08:20:09;;;;;;;4.72;2.40;;;;;;;27.52;57.11;101313.19;5026200;28;20029;-66
2023/09/08 08:22:38;;;;;;;;;;;;;;;27.56;57.00;101313.06;5030213;28;20029;-66
2023/09/08 08:25:04;;;;;;;4.15;2.15;;;;;;;27.63;56.16;101310.78;5030187;28;20370;-66
2023/09/08 08:27:30;;;;;;;3.75;2.03;;;;;;;27.83;53.88;101312.38;5031442;28;20033;-66
2023/09/08 08:29:59;;;;;;;4.65;2.42;;;;;;;27.96;53.47;101307.50;5034201;28;20128;-66
2023/09/08 08:32:25;;;;;;;3.35;1.85;;;;;;;28.14;54.39;101311.09;5030312;28;20112;-66
2023/09/08 08:34:51;;;;;;;3.58;1.98;;;;;;;28.33;53.90;101307.13;5028992;28;20116;-66
2023/09/08 08:37:16;;;;;;;5.57;2.60;;;;;;;28.39;54.12;101305.28;5031576;28;20426;-66
2023/09/08 08:39:45;;;;;;;2.65;1.80;;;;;;;28.64;53.76;101309.78;5015056;28;20026;-66
2023/09/08 08:42:10;;;;;;;4.65;1.90;;;;;;;28.71;52.18;101303.13;5042457;28;20045;-66
2023/09/08 08:44:38;;;;;;;3.38;1.88;;;;;;;28.91;52.82;101318.06;5030998;28;20040;-66
2023/09/08 08:47:06;;;;;;;2.92;1.92;;;;;;;29.02;52.33;101320.34;5028456;28;20021;-66
2023/09/08 08:49:36;;;;;;;2.85;1.95;;;;;;;29.18;51.63;101320.03;5027466;28;20040;-66
2023/09/08 08:52:07;;;;;;;3.03;1.90;;;;;;;29.24;52.02;101318.19;5024328;28;20060;-66
2023/09/08 08:54:39;;;;;;;4.10;2.20;;;;;;;29.43;50.31;101319.66;5024993;28;20045;-66
2023/09/08 08:57:06;;;;;;;3.85;2.08;;;;;;;29.33;50.59;101321.69;5027674;28;20367;-67
2023/09/08 08:59:32;;;;;;;3.15;1.98;;;;;;;29.23;52.13;101316.63;5024644;28;20034;-66
2023/09/08 09:01:58;;;;;;;3.85;1.85;;;;;;;29.09;51.56;101309.69;5040258;28;20052;-66
2023/09/08 09:04:25;;;;;;;2.10;1.65;;;;;;;29.42;50.40;101314.56;5023713;28;20033;-66
2023/09/08 09:07:11;;;;;;;3.47;2.25;;;;;;;29.58;50.63;101320.50;5019970;28;20036;-66
2023/09/08 09:09:36;;;;;;;2.83;1.98;;;;;;;29.82;47.89;101313.03;4943051;28;20051;-66
2023/09/08 09:12:03;;;;;;;3.95;2.10;;;;;;;29.68;50.04;101318.47;4943098;29;20054;-66
2023/09/08 09:14:33;;;;;;;4.82;1.83;;;;;;;29.98;49.45;101320.97;4928530;29;20079;-66
2023/09/08 09:16:59;;;;;;;3.72;2.20;;;;;;;30.08;48.86;101314.09;4925266;29;20066;-66
2023/09/08 09:19:27;;;;;;;3.30;2.00;;;;;;;30.32;47.99;101311.34;4945390;29;20047;-66
2023/09/08 09:21:54;;;;;;;2.30;1.60;;;;;;;30.45;48.28;101305.53;4931306;29;20049;-66
2023/09/08 09:24:36;;;;;;;3.25;1.70;;;;;;;30.64;48.23;101320.84;4946926;28;20094;-66
2023/09/08 09:27:06;;;;;;;3.13;2.00;;;;;;;30.82;47.66;101315.09;4947194;29;20407;-66
2023/09/08 09:29:33;;;;;;;2.03;1.60;;;;;;;31.04;47.20;101305.16;4938115;28;20043;-66
2023/09/08 09:32:07;;;;;;;3.65;1.83;;;;;;;31.24;47.18;101304.47;4938369;28;20114;-66
2023/09/08 09:34:34;;;;;;;2.60;1.70;;;;;;;31.36;46.46;101302.66;4945779;28;20587;-66
2023/09/08 09:37:00;;;;;;;2.80;1.80;;;;;;;31.49;46.64;101303.91;4948345;28;20038;-66
2023/09/08 09:39:26;;;;;;;4.65;1.67;;;;;;;31.65;46.26;101300.56;4933042;29;20121;-66
2023/09/08 09:41:56;;;;;;;2.83;1.70;;;;;;;31.76;46.43;101300.75;4948655;28;20039;-66
2023/09/08 09:44:22;;;;;;;2.63;1.55;;;;;;;31.90;46.20;101299.16;4940942;29;20102;-66
2023/09/08 09:46:51;;;;;;;2.70;1.80;;;;;;;31.97;45.71;101307.13;4988085;28;20067;-66
2023/09/08 09:49:17;;;;;;;3.17;1.70;;;;;;;32.05;45.52;101313.84;5019496;28;20038;-66
2023/09/08 09:51:53;;;;;;;3.78;1.75;;;;;;;32.22;45.54;101311.25;5026146;28;20037;-66
2023/09/08 09:54:19;;;;;;;3.42;1.60;;;;;;;31.89;44.58;101305.97;5027223;28;20474;-66
2023/09/08 09:56:46;;;;;;;2.85;1.80;;;;;;;32.07;45.13;101302.97;5039017;28;20056;-66
2023/09/08 09:59:13;;;;;;;2.40;1.50;;;;;;;32.33;45.51;101294.63;5026581;28;20493;-66
2023/09/08 10:01:42;;;;;;;2.65;1.60;;;;;;;32.54;44.75;101299.00;5027606;28;20034;-66
2023/09/08 10:04:08;;;;;;;2.22;1.73;;;;;;;32.52;43.78;101293.13;5026020;28;20069;-66
2023/09/08 10:06:36;;;;;;;3.67;1.98;;;;;;;32.59;43.90;101289.91;5019632;28;20072;-66
2023/09/08 10:09:13;;;;;;;2.72;1.65;;;;;;;32.71;43.64;101288.75;5025089;28;21120;-66
2023/09/08 10:11:47;;;;;;;2.67;1.67;;;;;;;32.83;44.84;101285.56;5015030;28;20034;-66
2023/09/08 10:14:15;;;;;;;2.80;1.50;;;;;;;33.02;44.08;101286.03;5020919;28;20026;-66
2023/09/08 10:16:43;;;;;;;5.43;1.80;;;;;;;33.14;44.76;101282.06;5024310;28;20083;-66
2023/09/08 10:19:10;;;;;;;2.60;1.63;;;;;;;32.96;43.07;101284.44;5021035;28;20029;-66
2023/09/08 10:21:40;;;;;;;2.40;1.55;;;;;;;33.08;43.51;101289.66;5028116;28;20029;-66
2023/09/08 10:24:13;;;;;;;2.15;1.70;;;;;;;32.70;43.91;101281.63;5028972;28;20044;-66
2023/09/08 10:26:43;;;;;;;2.70;1.95;;;;;;;32.75;45.01;101276.09;5032114;28;20041;-66
2023/09/08 10:29:10;;;;;;;2.90;1.50;;;;;;;32.85;44.26;101274.69;5031039;28;20041;-67
2023/09/08 10:31:36;;;;;;;3.63;2.00;;;;;;;32.89;44.31;101274.44;5031467;28;20029;-66
2023/09/08 10:34:03;;;;;;;2.13;1.75;;;;;;;33.04;44.32;101275.13;5034726;28;20167;-67
2023/09/08 10:36:28;;;;;;;3.75;1.85;;;;;;;32.75;44.48;101275.34;5017519;28;20045;-66
2023/09/08 10:38:56;;;;;;;2.85;1.70;;;;;;;32.72;43.32;101271.50;5033264;28;20017;-66
2023/09/08 10:41:22;;;;;;;3.15;1.40;;;;;;;32.77;43.73;101264.47;5026745;28;20040;-66
2023/09/08 10:44:01;;;;;;;1.90;1.63;;;;;;;32.31;43.50;101270.03;5030570;28;20025;-67
2023/09/08 10:46:28;;;;;;;3.83;1.67;;;;;;;32.38;44.02;101264.03;5029813;28;20037;-66
2023/09/08 10:48:54;;;;;;;4.38;1.75;;;;;;;32.45;43.99;101269.22;5029489;28;20029;-66
2023/09/08 10:51:22;;;;;;;2.35;1.50;;;;;;;32.67;42.74;101265.88;5023996;28;20052;-66
2023/09/08 10:53:51;;;;;;;2.65;1.75;;;;;;;32.39;43.56;101271.13;5022869;28;20017;-66
2023/09/08 10:56:18;;;;;;;2.92;1.70;;;;;;;32.53;42.79;101253.56;5050784;22;20182;-64
2023/09/08 10:58:49;;;;;;;3.22;1.95;;;;;;;32.50;42.98;101254.53;5040290;28;20037;-66
2023/09/08 11:01:26;;;;;;;2.53;1.60;;;;;;;32.46;43.05;101256.03;5040131;28;20063;-67
2023/09/08 11:03:53;;;;;;;2.10;1.50;;;;;;;32.53;43.15;101264.72;5032811;28;20041;-66
2023/09/08 11:06:23;;;;;;;4.10;1.98;;;;;;;32.60;42.66;101255.91;5010341;28;20056;-65
2023/09/08 11:08:52;;;;;;;3.00;1.70;;;;;;;32.89;41.54;101252.09;5008064;28;20040;-66
2023/09/08 11:11:19;;;;;;;2.40;1.60;;;;;;;32.89;42.67;101252.09;5011075;28;20530;-67
2023/09/08 11:13:47;;;;;;;6.43;1.83;;;;;;;33.08;41.51;101253.34;5005530;28;20100;-66
2023/09/08 11:16:14;;;;;;;3.15;1.83;;;;;;;33.19;41.93;101255.44;4996715;28;20049;-65
2023/09/08 11:18:42;;;;;;;2.35;1.35;;;;;;;33.26;41.44;101241.78;5027534;28;20033;-66
2023/09/08 11:21:09;;;;;;;3.08;1.83;;;;;;;32.93;41.04;101247.06;5022342;28;20033;-65
2023/09/08 11:23:35;;;;;;;2.78;1.50;;;;;;;32.97;41.04;101241.28;5018498;28;20024;-66